Time;durP1;ratioP1;P1;durP2;ratioP2;P2;SDS_P1;SDS_P2;PMS_P1;PMS_P2;Temp;Humidity;BMP_temperature;BMP_pressure;BME280_temperature;BME280_humidity;BME280_pressure;Samples;Min_cycle;Max_cycle;Signal;HPM_P1;HPM_P2
2024/03/26 00:02:22;;;;;;;14.35;4.60;;;;;;;;;;4446704;32;19952;-75
2024/03/26 00:04:47;;;;;;;12.73;4.50;;;;;;;;;;4441737;32;20060;-75
2024/03/26 00:07:12;;;;;;;;;;;;;;;;;;4435352;32;20337;-75
2024/03/26 00:09:38;;;;;;;20.83;4.90;;;;;;;;;;4434088;32;19937;-75
2024/03/26 00:12:03;;;;;;;14.05;4.28;;;;;;;;;;4435882;32;20503;-75
2024/03/26 00:14:28;;;;;;;20.40;5.20;;;;;;;;;;4444683;32;20080;-75
2024/03/26 00:16:53;;;;;;;;;;;;;;;;;;4434426;32;20096;-74
2024/03/26 00:19:18;;;;;;;15.85;4.80;;;;;;;;;;4438664;32;20387;-75
2024/03/26 00:21:44;;;;;;;9.68;4.10;;;;;;;;;;4449503;32;20037;-75
2024/03/26 00:24:09;;;;;;;;;;;;;;;;;;4449678;32;20369;-75
2024/03/26 00:26:35;;;;;;;10.90;4.35;;;;;;;;;;4445902;32;19974;-75
2024/03/26 00:29:00;;;;;;;9.00;4.28;;;;;;;;;;4435154;32;20021;-75
2024/03/26 00:31:25;;;;;;;12.52;4.43;;;;;;;;;;4440361;32;20422;-76
2024/03/26 00:33:50;;;;;;;;;;;;;;;;;;4450664;32;20045;-75
2024/03/26 00:36:15;;;;;;;11.73;4.72;;;;;;;;;;4447410;32;19960;-75
2024/03/26 00:38:40;;;;;;;;;;;;;;;;;;4439815;32;20133;-76
2024/03/26 00:41:05;;;;;;;10.70;4.28;;;;;;;;;;4433689;32;19941;-75
2024/03/26 00:43:31;;;;;;;13.98;4.20;;;;;;;;;;4434034;32;20030;-75
2024/03/26 00:45:56;;;;;;;12.63;3.97;;;;;;;;;;4434038;32;20635;-75
2024/03/26 00:48:21;;;;;;;;;;;;;;;;;;4434818;32;20096;-75
2024/03/26 00:50:46;;;;;;;8.52;4.10;;;;;;;;;;4434065;32;19933;-75
2024/03/26 00:53:12;;;;;;;14.10;4.22;;;;;;;;;;4432992;32;20037;-76
2024/03/26 00:55:37;;;;;;;;;;;;;;;;;;4434463;32;20407;-76
2024/03/26 00:58:02;;;;;;;13.57;4.82;;;;;;;;;;4433501;32;19956;-75
2024/03/26 01:00:27;;;;;;;;;;;;;;;;;;4434012;32;20183;-74
2024/03/26 01:02:52;;;;;;;9.80;3.97;;;;;;;;;;4439525;32;19940;-75
2024/03/26 01:05:17;;;;;;;14.57;4.05;;;;;;;;;;4448812;32;20133;-76
2024/03/26 01:07:42;;;;;;;;;;;;;;;;;;4442228;32;20499;-75
2024/03/26 01:10:08;;;;;;;10.55;3.92;;;;;;;;;;4434411;32;19987;-75
2024/03/26 01:12:33;;;;;;;;;;;;;;;;;;4435197;32;20125;-77
2024/03/26 01:14:58;;;;;;;10.35;3.55;;;;;;;;;;4449805;32;20012;-75
2024/03/26 01:17:23;;;;;;;;;;;;;;;;;;4436858;32;20125;-76
2024/03/26 01:19:48;;;;;;;10.68;4.05;;;;;;;;;;4435364;32;19972;-75
2024/03/26 01:22:13;;;;;;;;;;;;;;;;;;4420896;32;20168;-75
2024/03/26 01:24:39;;;;;;;18.17;5.30;;;;;;;;;;4419956;32;19937;-75
2024/03/26 01:27:04;;;;;;;;;;;;;;;;;;4445598;32;20616;-75
2024/03/26 01:29:29;;;;;;;11.00;4.45;;;;;;;;;;4445452;32;19928;-75
2024/03/26 01:31:54;;;;;;;14.25;4.10;;;;;;;;;;4446009;32;20021;-74
2024/03/26 01:34:19;;;;;;;;;;;;;;;;;;4450879;32;20041;-75
2024/03/26 01:36:45;;;;;;;11.60;3.97;;;;;;;;;;4439999;32;19945;-75
2024/03/26 01:39:10;;;;;;;16.15;4.70;;;;;;;;;;4434145;32;20103;-75
2024/03/26 01:41:36;;;;;;;13.20;4.50;;;;;;;;;;4441326;32;20450;-75
2024/03/26 01:44:01;;;;;;;;;;;;;;;;;;4438279;32;20052;-75
2024/03/26 01:46:26;;;;;;;13.80;3.95;;;;;;;;;;4438970;32;19951;-75
2024/03/26 01:48:52;;;;;;;13.38;5.00;;;;;;;;;;4448799;32;20053;-75
2024/03/26 01:51:18;;;;;;;;;;;;;;;;;;4443034;32;20068;-75
2024/03/26 01:53:43;;;;;;;10.10;4.10;;;;;;;;;;4433300;32;19941;-75
2024/03/26 01:56:08;;;;;;;;;;;;;;;;;;4434303;32;20037;-75
2024/03/26 01:58:33;;;;;;;11.82;4.85;;;;;;;;;;4445393;32;19991;-76
2024/03/26 02:00:59;;;;;;;11.07;4.10;;;;;;;;;;4444477;32;20086;-76
2024/03/26 02:03:24;;;;;;;;;;;;;;;;;;4433843;32;20311;-75
2024/03/26 02:05:49;;;;;;;12.10;4.68;;;;;;;;;;4433223;32;19937;-75
2024/03/26 02:08:15;;;;;;;;;;;;;;;;;;4433473;32;20469;-75
2024/03/26 02:10:40;;;;;;;9.00;4.40;;;;;;;;;;4433395;32;20023;-75
2024/03/26 02:13:05;;;;;;;16.77;4.50;;;;;;;;;;4435414;32;20052;-75
2024/03/26 02:15:30;;;;;;;11.88;4.28;;;;;;;;;;4432655;32;20065;-75
2024/03/26 02:17:55;;;;;;;;;;;;;;;;;;4444285;32;20033;-75
2024/03/26 02:20:22;;;;;;;13.93;5.00;;;;;;;;;;4446730;32;19992;-75
2024/03/26 02:22:47;;;;;;;9.13;4.57;;;;;;;;;;4438213;32;20108;-75
2024/03/26 02:25:12;;;;;;;;;;;;;;;;;;4433864;32;20077;-75
2024/03/26 02:27:37;;;;;;;13.52;4.45;;;;;;;;;;4444988;32;20245;-75
2024/03/26 02:30:03;;;;;;;;;;;;;;;;;;4448264;32;20045;-75
2024/03/26 02:32:28;;;;;;;14.65;4.82;;;;;;;;;;4435222;32;19936;-75
2024/03/26 02:34:53;;;;;;;16.95;5.15;;;;;;;;;;4432825;32;20085;-75
2024/03/26 02:37:18;;;;;;;;;;;;;;;;;;4432220;32;20484;-76
2024/03/26 02:39:43;;;;;;;11.75;4.43;;;;;;;;;;4432740;32;20001;-75
2024/03/26 02:42:08;;;;;;;;;;;;;;;;;;4441056;32;20081;-75
2024/03/26 02:44:34;;;;;;;11.40;4.30;;;;;;;;;;4451749;32;20307;-74
2024/03/26 02:46:59;;;;;;;14.70;5.03;;;;;;;;;;4451424;32;20158;-75
2024/03/26 02:49:24;;;;;;;;;;;;;;;;;;4437162;32;20048;-77
2024/03/26 02:51:49;;;;;;;9.20;4.15;;;;;;;;;;4435777;32;20017;-75
2024/03/26 02:54:14;;;;;;;10.68;5.62;;;;;;;;;;4436992;32;20084;-75
2024/03/26 02:56:39;;;;;;;;;;;;;;;;;;4434892;32;20050;-75
2024/03/26 02:59:05;;;;;;;9.52;4.35;;;;;;;;;;4435003;32;19940;-76
2024/03/26 03:01:30;;;;;;;15.70;4.65;;;;;;;;;;4441731;32;20029;-75
2024/03/26 03:03:55;;;;;;;;;;;;;;;;;;4450110;32;20045;-75
2024/03/26 03:06:20;;;;;;;12.32;5.10;;;;;;;;;;4448546;32;20060;-75
2024/03/26 03:08:45;;;;;;;7.87;4.12;;;;;;;;;;4450754;32;20447;-75
2024/03/26 03:11:10;;;;;;;14.93;4.65;;;;;;;;;;4450691;32;20037;-75
2024/03/26 03:13:36;;;;;;;11.88;4.43;;;;;;;;;;4442347;32;20033;-75
2024/03/26 03:16:01;;;;;;;;;;;;;;;;;;4435366;32;20387;-75
2024/03/26 03:18:27;;;;;;;8.18;4.18;;;;;;;;;;4435433;32;19951;-75
2024/03/26 03:20:52;;;;;;;;;;;;;;;;;;4434614;32;20132;-76
2024/03/26 03:23:17;;;;;;;13.05;4.70;;;;;;;;;;4438472;32;19940;-75
2024/03/26 03:25:42;;;;;;;;;;;;;;;;;;4451482;32;20125;-76
2024/03/26 03:28:07;;;;;;;12.00;4.65;;;;;;;;;;4450094;32;20441;-75
2024/03/26 03:30:32;;;;;;;;;;;;;;;;;;4451118;32;20140;-75
2024/03/26 03:32:58;;;;;;;11.55;4.78;;;;;;;;;;4442855;32;20304;-75
2024/03/26 03:35:23;;;;;;;11.95;4.68;;;;;;;;;;4436014;32;20034;-75
2024/03/26 03:37:48;;;;;;;;;;;;;;;;;;4435872;32;20484;-74
2024/03/26 03:40:13;;;;;;;12.48;4.70;;;;;;;;;;4441116;32;20303;-75
2024/03/26 03:42:38;;;;;;;;;;;;;;;;;;4451455;32;20131;-75
2024/03/26 03:45:07;;;;;;;7.95;4.07;;;;;;;;;;4450728;32;20284;-75
2024/03/26 03:47:32;;;;;;;12.23;4.55;;;;;;;;;;4445477;32;20072;-74
2024/03/26 03:49:57;;;;;;;;;;;;;;;;;;4445187;32;20064;-74
2024/03/26 03:52:23;;;;;;;10.20;4.60;;;;;;;;;;4450159;32;19989;-74
2024/03/26 03:54:48;;;;;;;18.17;4.62;;;;;;;;;;4435568;32;20081;-74
2024/03/26 03:57:13;;;;;;;;;;;;;;;;;;4435594;32;20448;-75
2024/03/26 03:59:38;;;;;;;7.57;4.53;;;;;;;;;;4434474;32;19973;-75
2024/03/26 04:02:03;;;;;;;;;;;;;;;;;;4435068;32;20504;-75
2024/03/26 04:04:28;;;;;;;14.18;5.25;;;;;;;;;;4435774;32;19983;-75
2024/03/26 04:06:54;;;;;;;9.52;4.65;;;;;;;;;;4435581;32;20394;-76
2024/03/26 04:09:19;;;;;;;9.23;5.03;;;;;;;;;;4435106;32;20085;-76
2024/03/26 04:11:44;;;;;;;;;;;;;;;;;;4440166;32;20037;-75
2024/03/26 04:14:09;;;;;;;12.30;5.50;;;;;;;;;;4441024;32;19944;-75
2024/03/26 04:16:34;;;;;;;;;;;;;;;;;;4435722;32;21390;-75
2024/03/26 04:19:00;;;;;;;12.55;4.90;;;;;;;;;;4434865;32;20279;-75
2024/03/26 04:21:25;;;;;;;;;;;;;;;;;;4451140;32;20140;-76
2024/03/26 04:23:50;;;;;;;12.68;4.95;;;;;;;;;;4450656;32;19946;-76
2024/03/26 04:26:15;;;;;;;15.73;4.70;;;;;;;;;;4435052;32;20388;-75
2024/03/26 04:28:40;;;;;;;;;;;;;;;;;;4439688;32;20085;-76
2024/03/26 04:31:06;;;;;;;11.82;5.28;;;;;;;;;;4437363;32;19945;-75
2024/03/26 04:33:31;;;;;;;13.90;5.45;;;;;;;;;;4435190;32;20082;-76
2024/03/26 04:35:56;;;;;;;;;;;;;;;;;;4450007;32;20055;-75
2024/03/26 04:38:21;;;;;;;12.43;5.45;;;;;;;;;;4448524;32;19969;-76
2024/03/26 04:40:46;;;;;;;11.52;5.05;;;;;;;;;;4448695;32;20072;-75
2024/03/26 04:43:11;;;;;;;;;;;;;;;;;;4438121;32;20087;-76
2024/03/26 04:45:37;;;;;;;16.20;4.80;;;;;;;;;;4447584;32;19948;-75
2024/03/26 04:48:03;;;;;;;11.38;5.20;;;;;;;;;;4434680;32;20045;-74
2024/03/26 04:50:28;;;;;;;;;;;;;;;;;;4433443;32;20532;-76
2024/03/26 04:52:54;;;;;;;12.05;5.43;;;;;;;;;;4444613;32;19992;-73
2024/03/26 04:55:19;;;;;;;18.37;5.30;;;;;;;;;;4436104;32;20381;-74
2024/03/26 04:57:44;;;;;;;;;;;;;;;;;;4434268;32;20365;-74
2024/03/26 05:00:12;;;;;;;12.23;4.93;;;;;;;;;;4446929;32;19956;-75
2024/03/26 05:02:38;;;;;;;12.15;5.03;;;;;;;;;;4433647;32;20628;-74
2024/03/26 05:05:03;;;;;;;;;;;;;;;;;;4432977;32;20065;-76
2024/03/26 05:07:28;;;;;;;12.48;5.22;;;;;;;;;;4433796;32;19948;-74
2024/03/26 05:09:53;;;;;;;13.77;5.20;;;;;;;;;;4433373;32;20038;-73
2024/03/26 05:12:19;;;;;;;;;;;;;;;;;;4436082;32;20444;-75
2024/03/26 05:14:44;;;;;;;13.93;5.47;;;;;;;;;;4440479;32;20311;-75
2024/03/26 05:17:09;;;;;;;11.82;5.70;;;;;;;;;;4449547;32;20030;-75
2024/03/26 05:19:34;;;;;;;;;;;;;;;;;;4443055;32;20098;-75
2024/03/26 05:21:59;;;;;;;13.82;5.45;;;;;;;;;;4434103;32;20011;-75
2024/03/26 05:24:24;;;;;;;;;;;;;;;;;;4435235;32;20129;-76
2024/03/26 05:26:50;;;;;;;13.70;5.12;;;;;;;;;;4433282;32;20272;-76
2024/03/26 05:29:15;;;;;;;;;;;;;;;;;;4434141;32;20529;-74
2024/03/26 05:31:40;;;;;;;13.05;5.65;;;;;;;;;;4434294;32;19941;-74
2024/03/26 05:34:05;;;;;;;18.48;6.18;;;;;;;;;;4432420;32;20084;-75
2024/03/26 05:36:32;;;;;;;12.65;5.70;;;;;;;;;;4442261;32;20424;-76
2024/03/26 05:38:58;;;;;;;14.27;5.03;;;;;;;;;;4448692;32;20063;-75
2024/03/26 05:41:23;;;;;;;;;;;;;;;;;;4440173;32;20034;-75
2024/03/26 05:43:52;;;;;;;8.32;4.95;;;;;;;;;;4433479;32;19937;-76
2024/03/26 05:46:18;;;;;;;22.20;7.15;;;;;;;;;;4433693;32;20064;-75
2024/03/26 05:48:43;;;;;;;;;;;;;;;;;;4434209;32;20054;-76
2024/03/26 05:51:08;;;;;;;9.52;5.32;;;;;;;;;;4433099;32;19984;-75
2024/03/26 05:53:33;;;;;;;;;;;;;;;;;;4433541;32;20155;-75
2024/03/26 05:55:58;;;;;;;12.55;5.35;;;;;;;;;;4433303;32;20005;-74
2024/03/26 05:58:23;;;;;;;18.98;5.05;;;;;;;;;;4433574;32;20299;-76
2024/03/26 06:00:49;;;;;;;11.95;5.07;;;;;;;;;;4432529;32;20366;-76
2024/03/26 06:03:14;;;;;;;12.50;5.22;;;;;;;;;;4439344;32;20045;-75
2024/03/26 06:05:39;;;;;;;12.45;5.18;;;;;;;;;;4448512;32;20037;-75
2024/03/26 06:08:05;;;;;;;;;;;;;;;;;;4435980;32;20030;-75
2024/03/26 06:10:30;;;;;;;18.30;5.15;;;;;;;;;;4433196;32;20020;-75
2024/03/26 06:12:55;;;;;;;14.00;6.32;;;;;;;;;;4432896;32;20086;-75
2024/03/26 06:15:23;;;;;;;15.90;5.95;;;;;;;;;;4424085;32;20105;-75
2024/03/26 06:17:49;;;;;;;14.23;5.32;;;;;;;;;;4431843;32;20112;-76
2024/03/26 06:20:14;;;;;;;;;;;;;;;;;;4432190;32;20117;-76
2024/03/26 06:22:39;;;;;;;12.10;5.47;;;;;;;;;;4434348;32;19980;-75
2024/03/26 06:25:05;;;;;;;13.32;5.32;;;;;;;;;;4449031;32;20037;-75
2024/03/26 06:27:30;;;;;;;11.10;5.40;;;;;;;;;;4440681;32;20404;-72
2024/03/26 06:29:55;;;;;;;;;;;;;;;;;;4418541;32;20491;-74
2024/03/26 06:32:21;;;;;;;12.50;5.40;;;;;;;;;;4444929;32;19928;-74
2024/03/26 06:34:46;;;;;;;16.20;5.20;;;;;;;;;;4448647;32;20644;-76
2024/03/26 06:37:11;;;;;;;19.08;6.03;;;;;;;;;;4447862;32;20421;-74
2024/03/26 06:39:37;;;;;;;;;;;;;;;;;;4440468;32;20037;-75
2024/03/26 06:42:05;;;;;;;12.55;5.55;;;;;;;;;;4432839;32;20627;-74
2024/03/26 06:44:30;;;;;;;11.05;5.40;;;;;;;;;;4433252;32;20049;-75
2024/03/26 06:46:55;;;;;;;;;;;;;;;;;;4447106;32;20029;-76
2024/03/26 06:49:21;;;;;;;10.90;4.78;;;;;;;;;;4448274;32;19944;-75
2024/03/26 06:51:46;;;;;;;;;;;;;;;;;;4444927;32;20042;-76
2024/03/26 06:54:11;;;;;;;11.15;5.60;;;;;;;;;;4432312;32;20300;-75
2024/03/26 06:56:36;;;;;;;;;;;;;;;;;;4433359;32;20546;-76
2024/03/26 06:59:02;;;;;;;9.68;4.37;;;;;;;;;;4431997;32;19945;-74
2024/03/26 07:01:30;;;;;;;;;;;;;;;;;;4439918;32;20143;-76
2024/03/26 07:03:55;;;;;;;14.75;5.55;;;;;;;;;;4447256;32;19949;-76
2024/03/26 07:06:20;;;;;;;;;;;;;;;;;;4435414;32;20413;-76
2024/03/26 07:08:46;;;;;;;11.70;5.90;;;;;;;;;;4430416;32;19945;-75
2024/03/26 07:11:11;;;;;;;;;;;;;;;;;;4433010;32;20547;-76
2024/03/26 07:13:44;;;;;;;12.57;5.60;;;;;;;;;;4445149;32;19960;-76
2024/03/26 07:16:10;;;;;;;8.38;5.70;;;;;;;;;;4441024;32;20025;-75
2024/03/26 07:18:36;;;;;;;;;;;;;;;;;;4418869;32;20079;-75
2024/03/26 07:21:05;;;;;;;9.93;4.93;;;;;;;;;;4443147;32;19955;-77
2024/03/26 07:23:31;;;;;;;9.18;4.90;;;;;;;;;;4447969;32;20037;-77
2024/03/26 07:25:56;;;;;;;;;;;;;;;;;;4448204;32;20075;-77
2024/03/26 07:28:23;;;;;;;9.38;4.50;;;;;;;;;;4436473;32;19985;-77
2024/03/26 07:30:48;;;;;;;11.68;4.60;;;;;;;;;;4434673;32;20049;-75
2024/03/26 07:33:13;;;;;;;;;;;;;;;;;;4435661;32;20073;-76
2024/03/26 07:35:39;;;;;;;18.00;11.57;;;;;;;;;;4435250;32;19933;-77
2024/03/26 07:38:04;;;;;;;12.40;4.90;;;;;;;;;;4436183;32;20056;-75
2024/03/26 07:40:30;;;;;;;10.90;4.70;;;;;;;;;;4441415;32;20100;-75
2024/03/26 07:42:55;;;;;;;10.77;5.12;;;;;;;;;;4438016;32;20084;-75
2024/03/26 07:45:21;;;;;;;11.52;4.97;;;;;;;;;;4450063;32;20075;-76
2024/03/26 07:47:46;;;;;;;;;;;;;;;;;;4449705;32;20093;-77
2024/03/26 07:50:12;;;;;;;11.63;5.47;;;;;;;;;;4434735;32;19945;-76
2024/03/26 07:52:37;;;;;;;;;;;;;;;;;;4421708;32;20159;-76
2024/03/26 07:55:02;;;;;;;10.13;5.10;;;;;;;;;;4450093;32;19937;-75
2024/03/26 07:57:27;;;;;;;;;;;;;;;;;;4449704;32;20167;-75
2024/03/26 07:59:54;;;;;;;10.13;4.95;;;;;;;;;;4436579;32;20271;-80
2024/03/26 08:02:19;;;;;;;16.48;5.25;;;;;;;;;;4442973;32;20136;-76
2024/03/26 08:04:46;;;;;;;;;;;;;;;;;;4434563;32;20288;-76
2024/03/26 08:07:11;;;;;;;8.48;4.45;;;;;;;;;;4431616;32;20153;-76
2024/03/26 08:09:36;;;;;;;;;;;;;;;;;;4433770;32;20439;-75
2024/03/26 08:12:02;;;;;;;9.90;4.85;;;;;;;;;;4434904;32;19952;-75
2024/03/26 08:14:27;;;;;;;10.27;5.18;;;;;;;;;;4430272;32;20480;-76
2024/03/26 08:16:53;;;;;;;11.32;5.20;;;;;;;;;;4432350;32;20480;-74
2024/03/26 08:19:18;;;;;;;;;;;;;;;;;;4432467;32;20450;-76
2024/03/26 08:21:54;;;;;;;8.55;4.50;;;;;;;;;;4436824;32;19963;-79
2024/03/26 08:24:22;;;;;;;8.93;5.25;;;;;;;;;;4443024;32;20080;-75
2024/03/26 08:26:47;;;;;;;8.45;4.28;;;;;;;;;;4441042;32;20046;-74
2024/03/26 08:29:12;;;;;;;;;;;;;;;;;;4434053;32;20037;-76
2024/03/26 08:31:40;;;;;;;12.50;5.72;;;;;;;;;;4434300;32;19947;-76
2024/03/26 08:34:05;;;;;;;8.18;4.80;;;;;;;;;;4430537;32;20129;-76
2024/03/26 08:36:30;;;;;;;;;;;;;;;;;;4433947;32;20064;-81
2024/03/26 08:39:10;;;;;;;8.98;4.90;;;;;;;;;;4432158;32;21862;-80
2024/03/26 08:41:36;;;;;;;7.45;4.93;;;;;;;;;;4448650;32;20034;-78
2024/03/26 08:44:23;;;;;;;8.73;4.93;;;;;;;;;;4442333;32;20094;-79
2024/03/26 08:46:48;;;;;;;7.90;4.68;;;;;;;;;;4436812;32;20045;-79
2024/03/26 08:49:26;;;;;;;;;;;;;;;;;;4442734;32;20076;-80
2024/03/26 08:51:51;;;;;;;9.57;5.45;;;;;;;;;;4434514;32;19988;-79
2024/03/26 08:54:16;;;;;;;;;;;;;;;;;;4433376;32;20400;-79
2024/03/26 08:56:57;;;;;;;17.85;4.97;;;;;;;;;;4433480;32;19961;-79
2024/03/26 08:59:41;;;;;;;10.90;6.00;;;;;;;;;;4434544;32;20392;-79
2024/03/26 09:05:32;;;;;;;9.15;5.57;;;;;;;;;;4431515;32;20178;-77
2024/03/26 09:11:10;;;;;;;11.38;5.72;;;;;;;;;;4355132;32;20460;-77
2024/03/26 09:13:44;;;;;;;7.15;4.87;;;;;;;;;;4357094;32;20039;-79
2024/03/26 09:16:18;;;;;;;10.70;5.20;;;;;;;;;;4370011;32;20066;-77
2024/03/26 09:18:52;;;;;;;12.10;5.32;;;;;;;;;;4366467;32;20046;-77
2024/03/26 09:21:21;;;;;;;9.45;5.00;;;;;;;;;;4368881;32;20030;-77
2024/03/26 09:23:53;;;;;;;14.32;5.95;;;;;;;;;;4351089;32;20099;-78
2024/03/26 09:26:29;;;;;;;11.07;6.07;;;;;;;;;;4353588;32;20051;-78
2024/03/26 09:29:20;;;;;;;9.63;5.65;;;;;;;;;;4396775;32;20089;-79
2024/03/26 09:31:45;;;;;;;8.82;4.97;;;;;;;;;;4416932;32;20026;-81
2024/03/26 09:34:16;;;;;;;7.68;4.75;;;;;;;;;;4429667;32;20034;-80
2024/03/26 09:36:49;;;;;;;11.07;5.28;;;;;;;;;;4419095;32;20383;-79
2024/03/26 09:39:17;;;;;;;11.93;6.00;;;;;;;;;;4425035;32;20064;-79
2024/03/26 09:47:53;;;;;;;11.43;5.60;;;;;;;;;;4270721;33;20123;-64
2024/03/26 09:50:19;;;;;;;7.00;4.85;;;;;;;;;;4272259;33;20088;-64
2024/03/26 09:52:44;;;;;;;;;;;;;;;;;;4270731;33;20407;-66
2024/03/26 09:55:09;;;;;;;9.23;5.70;;;;;;;;;;4270617;33;19948;-64
2024/03/26 09:57:34;;;;;;;9.30;4.60;;;;;;;;;;4270442;33;20117;-64
2024/03/26 10:00:00;;;;;;;;;;;;;;;;;;4269881;33;20033;-66
2024/03/26 10:02:25;;;;;;;7.35;4.97;;;;;;;;;;4271781;33;19996;-65
2024/03/26 10:04:50;;;;;;;;;;;;;;;;;;4283616;33;20142;-64
2024/03/26 10:07:15;;;;;;;11.52;5.05;;;;;;;;;;4270786;33;19954;-65
2024/03/26 10:09:40;;;;;;;;;;;;;;;;;;4271890;33;20161;-65
2024/03/26 10:12:09;;;;;;;13.25;4.90;;;;;;;;;;4270381;33;19986;-67
2024/03/26 10:14:34;;;;;;;11.75;5.00;;;;;;;;;;4272200;33;20529;-65
2024/03/26 10:16:59;;;;;;;18.83;10.18;;;;;;;;;;4271053;33;20108;-64
2024/03/26 10:19:24;;;;;;;9.48;5.47;;;;;;;;;;4272072;33;20117;-65
2024/03/26 10:21:49;;;;;;;;;;;;;;;;;;4272291;33;20060;-65
2024/03/26 10:24:15;;;;;;;10.45;5.30;;;;;;;;;;4277203;33;19945;-65
2024/03/26 10:26:40;;;;;;;11.18;4.90;;;;;;;;;;4286961;33;20097;-66
2024/03/26 10:29:05;;;;;;;;;;;;;;;;;;4270975;33;20034;-64
2024/03/26 10:31:30;;;;;;;11.43;6.20;;;;;;;;;;4270872;33;19941;-64
2024/03/26 10:33:55;;;;;;;8.38;4.47;;;;;;;;;;4269888;33;20030;-65
2024/03/26 10:36:21;;;;;;;9.18;4.85;;;;;;;;;;4284075;33;20029;-65
2024/03/26 10:38:47;;;;;;;9.48;4.87;;;;;;;;;;4284733;33;20025;-65
2024/03/26 10:41:16;;;;;;;10.88;5.32;;;;;;;;;;4286981;33;20026;-65
2024/03/26 10:43:41;;;;;;;11.45;5.03;;;;;;;;;;4285438;33;20457;-64
2024/03/26 10:46:06;;;;;;;9.32;4.70;;;;;;;;;;4289319;33;20076;-65
2024/03/26 10:48:32;;;;;;;9.88;5.28;;;;;;;;;;4300334;33;20032;-67
2024/03/26 10:50:58;;;;;;;;;;;;;;;;;;4299273;33;20214;-65
2024/03/26 10:53:24;;;;;;;7.47;4.85;;;;;;;;;;4297597;33;19951;-67
2024/03/26 10:55:50;;;;;;;11.30;5.10;;;;;;;;;;4283737;33;20208;-66
2024/03/26 10:58:15;;;;;;;9.63;5.07;;;;;;;;;;4285625;33;20112;-66
2024/03/26 11:00:41;;;;;;;5.93;4.32;;;;;;;;;;4286577;33;20037;-66
2024/03/26 11:03:08;;;;;;;11.20;4.80;;;;;;;;;;4284125;33;20088;-64
2024/03/26 11:05:35;;;;;;;14.40;4.95;;;;;;;;;;4287695;33;20037;-64
2024/03/26 11:08:00;;;;;;;11.50;5.93;;;;;;;;;;4301507;33;20028;-65
2024/03/26 11:10:26;;;;;;;9.75;4.72;;;;;;;;;;4301088;33;20087;-64
2024/03/26 11:12:54;;;;;;;8.45;5.12;;;;;;;;;;4291780;33;20064;-65
2024/03/26 11:15:20;;;;;;;12.90;5.22;;;;;;;;;;4287980;33;20033;-65
2024/03/26 11:17:48;;;;;;;7.65;5.55;;;;;;;;;;4287418;33;20055;-64
2024/03/26 11:20:15;;;;;;;7.55;4.68;;;;;;;;;;4285793;33;20118;-66
2024/03/26 11:22:40;;;;;;;9.18;5.05;;;;;;;;;;4287058;33;20042;-64
2024/03/26 11:25:05;;;;;;;8.55;5.37;;;;;;;;;;4292530;33;20430;-64
2024/03/26 11:27:31;;;;;;;8.35;4.57;;;;;;;;;;4286828;33;20414;-65
2024/03/26 11:29:56;;;;;;;11.55;5.37;;;;;;;;;;4287923;33;20033;-65
2024/03/26 11:32:21;;;;;;;;;;;;;;;;;;4289042;33;20053;-65
2024/03/26 11:34:47;;;;;;;15.25;5.25;;;;;;;;;;4301211;33;20428;-64
2024/03/26 11:37:12;;;;;;;9.23;4.90;;;;;;;;;;4297053;33;20070;-64
2024/03/26 11:39:37;;;;;;;;;;;;;;;;;;4286031;33;20087;-65
2024/03/26 11:42:03;;;;;;;10.18;5.12;;;;;;;;;;4286245;33;19959;-67
2024/03/26 11:44:28;;;;;;;7.72;4.65;;;;;;;;;;4284531;33;20352;-66
2024/03/26 11:46:56;;;;;;;10.20;4.78;;;;;;;;;;4298542;33;20159;-65
2024/03/26 11:49:22;;;;;;;8.30;5.03;;;;;;;;;;4298915;33;20068;-65
2024/03/26 11:51:47;;;;;;;8.02;4.90;;;;;;;;;;4300517;33;20120;-64
2024/03/26 11:54:12;;;;;;;10.82;5.05;;;;;;;;;;4301040;33;20167;-66
2024/03/26 11:56:38;;;;;;;14.68;5.25;;;;;;;;;;4286759;33;20313;-65
2024/03/26 11:59:03;;;;;;;10.48;4.65;;;;;;;;;;4288648;33;20378;-63
2024/03/26 12:01:28;;;;;;;7.40;4.80;;;;;;;;;;4302256;33;20029;-65
2024/03/26 12:03:58;;;;;;;12.82;5.60;;;;;;;;;;4292277;33;20083;-64
2024/03/26 12:06:25;;;;;;;7.43;4.62;;;;;;;;;;4285866;33;20038;-64
2024/03/26 12:08:51;;;;;;;11.50;4.53;;;;;;;;;;4287571;33;20063;-65
2024/03/26 12:11:17;;;;;;;8.35;4.25;;;;;;;;;;4308290;33;20041;-64
2024/03/26 12:13:42;;;;;;;8.65;4.75;;;;;;;;;;4301766;33;20028;-65
2024/03/26 12:16:26;;;;;;;9.57;4.62;;;;;;;;;;4302228;33;20029;-66
2024/03/26 12:18:51;;;;;;;8.75;4.45;;;;;;;;;;4301807;33;20052;-65
2024/03/26 12:21:17;;;;;;;6.18;4.72;;;;;;;;;;4302396;33;20029;-64
2024/03/26 12:23:42;;;;;;;9.25;5.03;;;;;;;;;;4301311;33;20163;-65
2024/03/26 12:26:07;;;;;;;;;;;;;;;;;;4287600;33;20068;-65
2024/03/26 12:28:33;;;;;;;8.40;4.72;;;;;;;;;;4287342;33;19988;-65
2024/03/26 12:30:59;;;;;;;12.63;5.15;;;;;;;;;;4287762;33;20064;-64
2024/03/26 12:33:24;;;;;;;9.52;5.18;;;;;;;;;;4299892;33;20029;-65
2024/03/26 12:35:51;;;;;;;10.32;5.20;;;;;;;;;;4301432;33;20040;-64
2024/03/26 12:38:16;;;;;;;14.15;6.28;;;;;;;;;;4299864;33;20072;-63
2024/03/26 12:40:41;;;;;;;8.80;4.95;;;;;;;;;;4307562;33;20056;-65
2024/03/26 12:43:06;;;;;;;9.55;5.07;;;;;;;;;;4302109;33;20088;-65
2024/03/26 12:45:31;;;;;;;;;;;;;;;;;;4301071;33;20087;-65
2024/03/26 12:47:56;;;;;;;9.10;5.05;;;;;;;;;;4300049;33;19959;-64
2024/03/26 12:50:22;;;;;;;11.68;5.30;;;;;;;;;;4296387;33;20073;-64
2024/03/26 12:52:47;;;;;;;11.60;5.20;;;;;;;;;;4285186;33;20108;-65
2024/03/26 12:55:12;;;;;;;12.02;4.65;;;;;;;;;;4286386;33;20040;-65
2024/03/26 12:57:37;;;;;;;10.18;5.15;;;;;;;;;;4298041;33;20489;-64
2024/03/26 13:00:03;;;;;;;7.25;4.50;;;;;;;;;;4288936;33;20056;-66
2024/03/26 13:02:28;;;;;;;9.88;5.05;;;;;;;;;;4299654;33;20041;-65
2024/03/26 13:04:53;;;;;;;10.40;4.97;;;;;;;;;;4296961;33;20433;-66
2024/03/26 13:07:18;;;;;;;11.82;5.25;;;;;;;;;;4286426;33;20469;-66
2024/03/26 13:09:44;;;;;;;10.25;5.30;;;;;;;;;;4285967;33;20096;-66
2024/03/26 13:12:09;;;;;;;11.93;5.30;;;;;;;;;;4285313;33;20025;-65
2024/03/26 13:14:34;;;;;;;11.20;4.90;;;;;;;;;;4296954;33;20063;-65
2024/03/26 13:16:59;;;;;;;9.43;4.90;;;;;;;;;;4300024;33;20048;-65
2024/03/26 13:19:27;;;;;;;9.70;5.07;;;;;;;;;;4300356;33;20028;-66
2024/03/26 13:21:53;;;;;;;8.90;5.07;;;;;;;;;;4311059;33;20033;-64
2024/03/26 13:24:18;;;;;;;7.15;4.87;;;;;;;;;;4300243;33;20055;-65
2024/03/26 13:26:43;;;;;;;8.88;5.15;;;;;;;;;;4300773;33;20024;-64
2024/03/26 13:29:08;;;;;;;9.40;5.90;;;;;;;;;;4294301;33;20030;-65
2024/03/26 13:31:33;;;;;;;11.68;5.37;;;;;;;;;;4286975;33;20469;-64
2024/03/26 13:33:59;;;;;;;12.02;5.40;;;;;;;;;;4300395;33;20371;-64
2024/03/26 13:36:24;;;;;;;16.73;6.62;;;;;;;;;;4294923;33;20033;-65
2024/03/26 13:38:49;;;;;;;11.55;6.40;;;;;;;;;;4290931;33;20029;-64
2024/03/26 13:41:14;;;;;;;10.25;4.87;;;;;;;;;;4299212;33;20075;-64
2024/03/26 13:43:39;;;;;;;11.30;5.12;;;;;;;;;;4285692;33;20065;-65
2024/03/26 13:46:05;;;;;;;9.10;5.32;;;;;;;;;;4284432;33;20374;-65
2024/03/26 13:48:30;;;;;;;9.35;5.00;;;;;;;;;;4285829;33;20336;-64
2024/03/26 13:50:56;;;;;;;10.50;5.57;;;;;;;;;;4284752;33;20051;-65
2024/03/26 13:53:21;;;;;;;9.18;5.10;;;;;;;;;;4299356;33;20040;-65
2024/03/26 13:55:46;;;;;;;18.15;6.47;;;;;;;;;;4293098;33;20032;-66
2024/03/26 13:58:11;;;;;;;12.27;5.10;;;;;;;;;;4285980;33;20041;-65
2024/03/26 14:00:40;;;;;;;11.32;5.82;;;;;;;;;;4289343;33;20206;-66
2024/03/26 14:03:05;;;;;;;8.13;5.62;;;;;;;;;;4292599;33;20033;-64
2024/03/26 14:05:31;;;;;;;10.68;5.55;;;;;;;;;;4296237;33;20062;-64
2024/03/26 14:07:57;;;;;;;11.07;5.22;;;;;;;;;;4284228;33;20029;-64
2024/03/26 14:10:23;;;;;;;10.57;5.37;;;;;;;;;;4284957;33;20452;-66
2024/03/26 14:12:48;;;;;;;11.52;5.65;;;;;;;;;;4293146;33;20086;-65
2024/03/26 14:15:13;;;;;;;9.35;5.43;;;;;;;;;;4299636;33;20075;-66
2024/03/26 14:17:39;;;;;;;9.48;6.28;;;;;;;;;;4309176;33;20029;-66
2024/03/26 14:20:09;;;;;;;13.75;5.82;;;;;;;;;;4298188;33;20469;-65
2024/03/26 14:22:35;;;;;;;9.75;5.80;;;;;;;;;;4291262;33;20048;-65
2024/03/26 14:25:00;;;;;;;13.05;6.43;;;;;;;;;;4294850;33;20096;-64
2024/03/26 14:27:25;;;;;;;10.80;5.95;;;;;;;;;;4291392;33;20121;-65
2024/03/26 14:29:54;;;;;;;15.35;5.75;;;;;;;;;;4288432;33;20029;-66
2024/03/26 14:32:19;;;;;;;12.77;5.10;;;;;;;;;;4290926;33;20127;-65
2024/03/26 14:34:44;;;;;;;12.98;6.78;;;;;;;;;;4286317;33;20096;-66
2024/03/26 14:37:10;;;;;;;24.73;6.53;;;;;;;;;;4297759;33;20191;-67
2024/03/26 14:39:35;;;;;;;10.25;5.15;;;;;;;;;;4300580;33;20095;-65
2024/03/26 14:42:00;;;;;;;11.50;5.78;;;;;;;;;;4301090;33;20041;-64
2024/03/26 14:44:25;;;;;;;10.45;6.12;;;;;;;;;;4298090;33;20442;-66
2024/03/26 14:46:50;;;;;;;11.90;5.78;;;;;;;;;;4298257;33;20061;-66
2024/03/26 14:49:16;;;;;;;11.07;5.87;;;;;;;;;;4286955;33;20474;-67
2024/03/26 14:51:41;;;;;;;11.50;6.43;;;;;;;;;;4287683;33;20033;-66
2024/03/26 14:54:06;;;;;;;12.20;5.85;;;;;;;;;;4287023;33;20091;-64
2024/03/26 14:56:31;;;;;;;10.30;6.12;;;;;;;;;;4287173;33;20045;-67
2024/03/26 14:58:56;;;;;;;11.10;5.60;;;;;;;;;;4290785;33;20492;-66
2024/03/26 15:01:22;;;;;;;9.80;5.68;;;;;;;;;;4288722;33;20411;-65
2024/03/26 15:03:47;;;;;;;13.77;5.90;;;;;;;;;;4297288;33;20131;-65
2024/03/26 15:06:13;;;;;;;11.18;6.47;;;;;;;;;;4288298;33;20038;-65